今日のアクセス数

    岡山グライダークラブ活動状況掲示板

岡山グライダークラブ
岡山市浦安南町639-1 岡南飛行場
 使用機:シャイベ式 SF25C型 ファルケ   JA2330
      ヴァレンティン式17E型 タイフーン  JA2342
 練習日:毎日曜日  クラブルーム:電話 086-265-1810
この掲示板は岡山グライダークラブの活動状況をお知らせする掲示板です。
!!!この掲示板は投稿規制をしています。!!!
クラブ関連各種情報は 岡山グライダークラブクラブルーム      を       .
  ブリーフイング情報は  岡山グライダークラブブリーフィングルーム  をご覧下さい。 .
※写真はクリックすると拡大して見ることが出来ます。
岡南飛行場へのアクセス等は 岡南飛行場管理事務所 をご覧ください。
クラブの ホームページ ができました。

!!!まん延防止等重点措置の解除に伴い、見学者等の受入を再開します。なお、来所の際には、< こちら を順守願います。

ページ 1 (1〜10)ホームページへ戻る

05月15日
by OGC at 2022/5/15(日) 20:06:08 No.20220515195813 コメント】  削除 引用
1024 x 768 x 78,183バイト
No.1

05月15日
本日の参加者
  会員      14名
  その他      2名


@本日の様子






METAR
RJBK 150100Z VRB02KT 30KM FEW035CU SCT120AC BKN180AC 17/11 Q1012 A2990
RJOB 150100Z 08003KT 030V140 9999 FEW030 SCT120 BKN170 16/08 Q1012
RJOT 150100Z 01003KT 320V040 9999 FEW025 SCT140 BKN170 17/10 Q1012
RJOA 150100Z VRB02KT 9999 FEW030 SCT110 BKN130 16/05 Q1013
TAF
RJOB 142305Z 1500/1606 34004KT 9999 FEW030
     BECMG 1501/1503 18006KT
     BECMG 1510/1512 36004KT
     BECMG 1600/1603 23005KT
RJOT 142305Z 1500/1606 06006KT 9999 FEW030
     BECMG 1521/1600 28007KT
RJOA 142305Z 1500/1606 14004KT 9999 FEW030
     BECMG 1508/1510 32005KT


 天候は曇り、本日は笠岡ふれあい空港のイベントに参加し、モーターグライダーを
地域の皆様に紹介してきました。一方、留守番組は、のんびりと小豆島へNAVに出
たり、飛行場周辺をフライトしていました。


解散    18:30

1番機  09:40離陸 撤収機  16:50着陸 

SF25C JA2330 ファルケ     10Flt.4h05min  
17E   JA2342 タイフーン    03Flt.1h20min
合計                    13Flt.5h25min

 ハードディスクが読み込まない時に注意したい事と復旧する方法    Macのデータ復旧・自分でできる復元方法やバックアップ対策を紹介!

05月08日
by OGC at 2022/5/8(日) 22:11:57 No.20220508220626 コメント】  削除 引用
640 x 480 x 127,200バイト
No.1

05月08日
本日の参加者
  会員      14名
  その他      1名


@本日の様子






METAR
RJBK 080000Z 08003KT 040V140 30KM FEW025CU BKN060SC 17/09 Q1020 A3012
RJOB 080000Z 36006KT 300V040 9999 FEW020 SCT/// 16/06 Q1019
RJOT 080000Z 08009KT 9999 FEW020 BKN030 15/06 Q1019
RJOA 080000Z 10008KT 070V150 9999 FEW030 17/02 Q1019
TAF
RJOB 072305Z 0800/0906 04006KT 9999 FEW030
RJOT 072306Z 0800/0906 05007KT 9999 FEW030 SCT060
RJOA 072306Z 0800/0906 16006KT 9999 FEW030


 本日の天候は晴れ。ファルケの50時間点検も終わり、訓練生は今日もTGL訓練や
サーマルソアリング訓練を行い、ライセンサーは右席で教官の訓練やサーマル
ソアリングをしていました。


解散    18:30

1番機  11:50離陸 撤収機  17:50着陸 

SF25C JA2330 ファルケ     08Flt.3h35min  
17E   JA2342 タイフーン    02Flt.1h05min
合計                    10Flt.4h40min

04月24日
by OGC at 2022/4/24(日) 23:03:15 No.20220424230122 コメント】  削除 引用
640 x 480 x 153,544バイト
No.1

04月24日
本日の参加者
  会員      13名
  その他      0名


@本日の様子






METAR
RJBK 240100Z 06003KT 020V110 6KM -RA FEW006ST SCT015CU BKN025CU 16/15 Q1012 A2991
RJOB 240100Z 06008KT 3500 -RA BR BCFG FEW000 SCT006 BKN010 16/15 Q1013
RJOT 240100Z 06008KT 4000 -RA BR FEW000 SCT005 BKN040 15/15 Q1012
RJOA 240100Z 08009KT 3000 -RA BCFG BR FEW000 SCT004 BKN050 15/14 Q1012
TAF
RJOB 232306Z 2400/2506 04005KT 9999 FEW020
     TEMPO 2400/2404 3000 -RA BR BCFG FEW000 SCT005 BKN008
     BECMG 2408/2410 32005KT
     TEMPO 2418/2500 3000 BR BCFG FEW000 SCT005 BKN008
RJOT 232305Z 2400/2506 05007KT 6000 -RA FEW003 SCT008 BKN015
     TEMPO 2400/2403 2000 RA BR BCFG FEW000 SCT003 BKN005
     TEMPO 2403/2406 3000 -RA BR BCFG FEW000 SCT003 BKN005
RJOA 232305Z 2400/2506 08005KT 6000 -RA FEW003 SCT008 BKN020
     TEMPO 2400/2404 3000 -RA BR BCFG FEW000 SCT003 BKN005
     BECMG 2409/2411 32004KT
     TEMPO 2418/2500 3000 BR BCFG FEW000 SCT005 BKN008


 「晴れの飛行場 岡南」には珍しく雨のため、少し早いですが50時間点検を実施しました。



解散    15:00

本日のフライトはありません。
04月17日
by OGC at 2022/4/18(月) 02:37:48 No.20220417212815 コメント】  削除 引用
640 x 480 x 126,177バイト
No.1

04月17日
本日の参加者
  会員      15名
  その他      1名


@本日の様子






METAR
RJBK 170000Z VRB02KT 30KM SCT/// 11/05 Q1018 A3009
RJOB 170000Z VRB02KT 9999 FEW030 SCT/// 12/02 Q1018
RJOT 170000Z VRB02KT 9999 FEW025 BKN/// 13/02 Q1018
RJOA 170000Z VRB02KT CAVOK 12/01 Q1018
TAF
RJOB 162305Z 1700/1806 09004KT 9999 FEW035
     BECMG 1701/1703 20006KT
     BECMG 1709/1711 01005KT
     BECMG 1800/1803 19005KT
RJOT 162305Z 1700/1806 02004KT 9999 FEW035
     BECMG 1700/1702 32006KT
     BECMG 1710/1712 15006KT
     BECMG 1800/1803 32006KT
RJOA 162305Z 1700/1806 16004KT 9999 FEW035
     BECMG 1703/1705 19006KT


 本日の天候は雲一つない快晴。風は弱い横風、訓練生は横風着陸の練習
を行い、ライセンサーはサーマルを探していましたが気温が温かく、こち
らはイマイチでした。


解散    18:00

1番機  11:00離陸 撤収機  17:15着陸 

SF25C JA2330 ファルケ     09Flt.3h30min  
17E   JA2342 タイフーン    04Flt.1h35min
合計                    13Flt.5h05min
04月10日
by OGC at 2022/4/10(日) 19:57:09 No.20220410195247 コメント】  削除 引用
640 x 480 x 130,652バイト
No.1

04月10日
本日の参加者
  会員      13名
  その他      0名


@本日の様子






METAR
RJBK 100000Z VRB01KT 8000 SKC 15/11 Q1020 A3015
RJOB 100000Z VRB02KT CAVOK 18/12 Q1020
RJOT 100000Z 02003KT 350V070 CAVOK 17/10 Q1020
RJOA 100000Z VRB04KT CAVOK 17/10 Q1021
TAF
RJOB 092305Z 1000/1106 18006KT 9999 FEW035
     BECMG 1009/1011 02004KTT
RJOT 092305Z 1000/1106 03005KT 9999 FEW030
RJOA 092305Z 1000/1106 20006KT 9999 FEW030


 本日の天候はSKCですが視程がイマイチ、訓練生はソロフライトやTGL
訓練を行い、ライセンサーはサーマルを探していましたが気温が温かくなり
こちらもイマイチでした。


解散    17:00

1番機  10:25離陸 撤収機  15:55着陸 

SF25C JA2330 ファルケ     07Flt.3h20min  
17E   JA2342 タイフーン    03Flt.1h50min
合計                    10Flt.5h10min
04月09日
by OGC at 2022/4/10(日) 18:39:47 No.20220410182952 コメント】  削除 引用
640 x 480 x 119,954バイト
No.1

04月09日
本日の参加者
  会員        8名
  その他      2名


@本日の様子






METAR
RJBK 090000Z 12003KT 020V180 10KM SKC 17/10 Q1020 A3012
RJOB 090000Z VRB03KT CAVOK 16/07 Q1019
RJOT 090000Z 36003KT 310V040 CAVOK 16/06 Q1020
RJOA 090000Z 26005KT 220V300 CAVOK 16/06 Q1019
TAF
RJOB 082307Z 0900/1006 21006KT 9999 FEW035
     BECMG 0910/0912 02005KT
     BECMG 0921/1000 19007KT
RJOT 082305Z 0900/1006 04004KT 9999 FEW030
     BECMG 0900/0902 30007KT
     BECMG 0912/0915 15004KT
RJOA 082305Z 0900/1006 21006KT 9999 FEW035


 本日は快晴、訓練生はソロフライトで時間を稼いだり、TGLやNAVI
訓練をしていました。


解散    18:00

1番機  11:10離陸 撤収機  17:45着陸 

SF25C JA2330 ファルケ     08Flt.4h25min  
17E   JA2342 タイフーン    00Flt.0h00min
合計                    08Flt.4h25min
04月03日
by OGC at 2022/4/4(月) 21:25:12 No.20220404210832 コメント】  削除 引用
640 x 480 x 143,514バイト
No.1

04月03日
本日の参加者
  会員      13名
  その他      1名


@本日の様子






METAR
RJBK 030000Z 17003KT 140V200 30KM FEW025CU 08/03 Q1027 A3034
RJOB 030000Z 05004KT 010V110 9999 FEW025 10/00 Q1026
RJOT 030000Z VRB03KT 9999 FEW030 BKN/// 09/04 Q1026
RJOA 030000Z VRB03KT 9999 FEW030 09/M01 Q1026
TAF
RJOB 022305Z 0300/0406 12008KT 9999 FEW020 BKN035
RJOT 022309Z 0300/0406 07010KT 9999 FEW015 BKN035
     BECMG 0310/0312 15005KT
     BECMG 0321/0400 32005KT
RJOA 022309Z 0300/0406 15007KT 9999 FEW035
     BECMG 0315/0318 33005KT

 本日は快晴、訓練生はソロフライトで時間を稼いだり、TGLで着陸練習をしたり
ライセンサーはブルーサーマルを探し回っていました。


解散    17:30

1番機  10:45離陸 撤収機  16:35着陸 

SF25C JA2330 ファルケ     08Flt.3h35min  
17E   JA2342 タイフーン    03Flt.1h10min
合計                    11Flt.4h45min
03月27日
by OGC at 2022/3/27(日) 21:38:59 No.20220327213708 コメント】  削除 引用
640 x 480 x 146,846バイト
No.1

03月27日
本日の参加者
  会員      15名
  その他      0名


@本日の様子






METAR
RJBK 270000Z 28006KT 260V340 30KM FEW035CU SCT150AC 14/06 Q1012 A2990
RJOB 270000Z VRB03KT 9999 FEW015 SCT170 13/05 Q1012
RJOT 270000Z 25008KT 9999 FEW015 BKN150 13/11 Q1012
RJOA 270000Z 07004KT 350V130 9999 FEW010 12/06 Q1012
TAF
RJOB 262306Z 2700/2806 24006KT 9999 FEW025
     BECMG 2718/2721 01008KT
RJOT 262305Z 2700/2806 29008KT 9999 FEW030
     BECMG 2721/2800 01005KT
RJOA 262305Z 2700/2806 22006KT 9999 FEW030
     BECMG 2712/2715 31010KT
     BECMG 2721/2800 02007KT

 本日は快晴、一時、横風の時もありましたが、ほぼ正対風で着陸しやすいコンディションでした。
訓練生はソロフライトで時間を稼いだり、ライセンサーはブルーサーマルを探し回っていました。


解散    18:30

1番機  10:30離陸 撤収機  18:00着陸 

SF25C JA2330 ファルケ     11Flt.4h00min  
17E   JA2342 タイフーン    04Flt.1h50min
合計                    15Flt.5h50min
03月20日
by OGC at 2022/3/21(月) 02:34:23 No.20220321023114 コメント】  削除 引用
640 x 480 x 133,797バイト
No.1

03月20日
本日の参加者
  会員      12名
  その他      0名


@本日の様子






METAR
RJBK 200000Z 24005KT 200V270 30KM FEW020CU 08/03 Q1018 A3007
RJOB 200000Z 30005KT 230V360 9999 FEW015 07/02 Q1017
RJOT 200000Z 24005KT 210V280 9999 FEW025 SCT030 08/03 Q1017
RJOA 200000Z 33008KT 9999 FEW020 06/00 Q1017
TAF
RJOB 192306Z 2000/2106 30007KT 9999 FEW020 SCT045
     BECMG 2008/2010 04005KT
RJOT 192306Z 2000/2106 28010KT 9999 FEW030
     BECMG 2010/2012 15006KT
RJOA 1192306Z 2000/2106 28006KT 9999 FEW025 SCT045
     BECMG 2021/2100 12006KT

 本日は晴れで、ほぼ正対風で着陸しやすいコンディションでした。
訓練生はソロフライトで時間を稼いだり、サーマルを探して回ったりしていました。
 また、今年1人目の新規入会者が来られ、訓練を開始しました。


解散    18:30

1番機  11:40離陸 撤収機  17:40着陸 

SF25C JA2330 ファルケ     06Flt.2h10min  
17E   JA2342 タイフーン    03Flt.0h55min
合計                    09Flt.3h05min
03月13日
by OGC at 2022/3/13(日) 19:54:52 No.20220313195302 コメント】  削除 引用
640 x 480 x 148,541バイト
No.1

03月13日
本日の参加者
  会員      12名
  その他      2名


@本日の様子






METAR
RJBK 130000Z 20003KT 4500 BR FEW030CU BKN070AC BKN/// 13/09 Q1018 A3008
RJOB 130000Z 12003KT 9999 FEW025 SCT060 BKN/// 14/10 Q1018
RJOT 130000Z 36004KT 9999 FEW030 BKN/// 15/10 Q1018
RJOA 130000Z 27005KT 230V300 9999 FEW025 BKN/// 15/10 Q1018
TAF
RJOB 122307Z 1300/1406 22008KT 9999 FEW025
     TEMPO 1315/1318 4000 -SHRA BR BCFG FEW000 SCT005 BKN008
RJOT 122305Z 1300/1406 02006KT 9999 FEW025 SCT060
     BECMG 1309/1311 20006KT
     TEMPO 1318/1400 4000 -SHRA BR FEW003 BKN008 BKN015
RJOA 122305Z 1300/1406 21008KT 9999 FEW020 SCT045
     TEMPO 1315/1321 4000 -SHRA BR BCFG FEW000 SCT005 BKN008

 本日は曇りで朝方、靄が出ていましたがすぐに回復し、風もほとんどなくソロフ
ライト日和になりました。訓練生はソロフライトで時間を稼いだり、TGL訓練を
行っていました。
 また、岡山県のまん延防止が解け、本日、見学者2名の来所がありました。


解散    18:00

1番機  10:30離陸 撤収機  17:15着陸 

SF25C JA2330 ファルケ     12Flt.3h20min  
17E   JA2342 タイフーン    00Flt.0h00min
合計                    12Flt.3h20min


 ハードディスクが読み込まない時に注意したい事と復旧する方法    Macのデータ復旧・自分でできる復元方法やバックアップ対策を紹介!

ホームページへ 全 62 件 [ 1 2 3 4 5 6 7 ]

モータースポーツ | 管理者へメール | お知らせ | 一括削除
携帯から使う方法 | ヘルプ | 利用規約 | 違反報告 | 管理パネル



- 無料レンタル掲示板 -